Time;durP1;ratioP1;P1;durP2;ratioP2;P2;SDS_P1;SDS_P2;PMS_P1;PMS_P2;Temp;Humidity;BMP_temperature;BMP_pressure;BME280_temperature;BME280_humidity;BME280_pressure;Samples;Min_cycle;Max_cycle;Signal;HPM_P1;HPM_P2
2021/09/10 00:05:22;;;;;;;8.00;7.30;;;19.50;79.50;;;;;;10533915;28;20207;-67
2021/09/10 00:10:44;;;;;;;7.87;7.17;;;19.50;79.50;;;;;;10531818;28;20214;-68
2021/09/10 00:16:07;;;;;;;8.80;7.90;;;19.50;79.40;;;;;;10531642;28;20584;-67
2021/09/10 00:21:30;;;;;;;8.47;7.57;;;19.50;79.40;;;;;;10533630;28;20243;-67
2021/09/10 00:26:52;;;;;;;8.00;7.20;;;19.50;79.40;;;;;;10540942;28;20587;-67
2021/09/10 00:32:14;;;;;;;8.73;7.83;;;19.50;79.40;;;;;;10540448;28;20191;-68
2021/09/10 00:37:38;;;;;;;8.20;7.37;;;19.50;79.40;;;;;;10540140;28;20226;-68
2021/09/10 00:43:00;;;;;;;7.90;7.13;;;19.50;79.40;;;;;;10541415;28;20196;-67
2021/09/10 00:48:22;;;;;;;8.23;7.40;;;19.50;79.50;;;;;;10540228;28;20223;-66
2021/09/10 00:53:46;;;;;;;10.30;7.23;;;19.50;79.40;;;;;;10499222;28;20208;-67
2021/09/10 00:59:08;;;;;;;8.70;7.90;;;19.50;79.40;;;;;;10498498;28;20224;-67
2021/09/10 01:04:30;;;;;;;8.13;7.33;;;19.50;79.50;;;;;;10498919;28;20204;-67
2021/09/10 01:09:56;;;;;;;8.20;7.43;;;19.50;79.60;;;;;;10535277;28;20208;-67
2021/09/10 01:15:18;;;;;;;8.40;7.60;;;19.50;79.60;;;;;;10538687;28;20255;-67
2021/09/10 01:20:40;;;;;;;8.97;8.00;;;19.50;79.60;;;;;;10538107;28;20223;-68
2021/09/10 01:26:04;;;;;;;8.37;7.67;;;19.60;79.60;;;;;;10537956;28;20591;-68
2021/09/10 01:31:26;;;;;;;8.20;7.50;;;19.50;79.60;;;;;;10559307;22;20227;-67
2021/09/10 01:36:48;;;;;;;8.10;7.30;;;19.50;79.60;;;;;;10502109;28;20196;-67
2021/09/10 01:42:12;;;;;;;8.63;7.83;;;19.50;79.70;;;;;;10540879;28;20599;-67
2021/09/10 01:47:35;;;;;;;9.00;8.10;;;19.50;79.80;;;;;;10537478;28;20195;-66
2021/09/10 01:52:57;;;;;;;9.03;7.83;;;19.50;79.90;;;;;;10576726;28;20220;-67
2021/09/10 01:58:21;;;;;;;7.20;6.50;;;19.60;79.90;;;;;;10577966;28;20214;-67
2021/09/10 02:03:43;;;;;;;7.73;7.03;;;19.50;80.00;;;;;;10578704;28;20191;-67
2021/09/10 02:09:05;;;;;;;8.27;7.47;;;19.50;80.00;;;;;;10578342;28;20215;-66
2021/09/10 02:14:28;;;;;;;7.93;7.13;;;19.50;80.10;;;;;;10575673;28;20210;-67
2021/09/10 02:19:50;;;;;;;7.90;7.13;;;19.50;80.20;;;;;;10576822;28;20226;-67
2021/09/10 02:25:13;;;;;;;7.07;6.37;;;19.60;80.20;;;;;;10577398;28;20195;-67
2021/09/10 02:30:36;;;;;;;7.23;6.60;;;19.50;80.20;;;;;;10571461;28;20207;-67
2021/09/10 02:35:58;;;;;;;6.80;6.20;;;19.60;80.40;;;;;;10578352;28;20699;-67
2021/09/10 02:41:20;;;;;;;7.00;6.40;;;19.50;80.40;;;;;;10578011;28;20230;-67
2021/09/10 02:46:44;;;;;;;6.97;6.27;;;19.50;80.50;;;;;;10575878;28;20206;-67
2021/09/10 02:52:06;;;;;;;7.07;6.37;;;19.60;80.60;;;;;;10576886;28;20207;-67
2021/09/10 02:57:28;;;;;;;6.93;6.23;;;19.60;80.70;;;;;;10576920;28;20195;-67
2021/09/10 03:02:52;;;;;;;6.53;5.93;;;19.60;80.60;;;;;;10576057;28;20218;-67
2021/09/10 03:08:14;;;;;;;6.33;5.73;;;19.60;80.80;;;;;;10577095;28;20215;-67
2021/09/10 03:13:36;;;;;;;7.10;5.93;;;19.60;81.00;;;;;;10564161;28;20208;-67
2021/09/10 03:19:00;;;;;;;5.70;5.20;;;19.60;81.10;;;;;;10534438;28;20248;-67
2021/09/10 03:24:22;;;;;;;6.90;6.23;;;19.60;81.20;;;;;;10534698;28;20199;-67
2021/09/10 03:29:44;;;;;;;6.90;6.30;;;19.60;81.30;;;;;;10558286;28;20226;-67
2021/09/10 03:35:08;;;;;;;6.40;5.80;;;19.60;81.50;;;;;;10575765;28;20698;-66
2021/09/10 03:40:35;;;;;;;6.10;5.50;;;19.60;81.60;;;;;;10575686;28;20726;-67
2021/09/10 03:45:57;;;;;;;7.00;5.60;;;19.60;81.60;;;;;;10576008;28;20286;-67
2021/09/10 03:51:20;;;;;;;6.77;5.47;;;19.60;81.60;;;;;;10575173;28;20206;-67
2021/09/10 03:56:42;;;;;;;6.50;5.50;;;19.60;81.50;;;;;;10574957;28;20206;-67
2021/09/10 04:02:05;;;;;;;6.97;5.80;;;19.60;81.50;;;;;;10583026;28;20230;-67
2021/09/10 04:07:28;;;;;;;5.43;4.93;;;19.60;81.50;;;;;;10580708;28;20190;-67
2021/09/10 04:12:50;;;;;;;6.10;5.60;;;19.60;81.50;;;;;;10582062;28;20198;-67
2021/09/10 04:18:12;;;;;;;5.87;5.27;;;19.60;81.50;;;;;;10580661;28;20695;-67
2021/09/10 04:23:36;;;;;;;6.50;5.80;;;19.60;81.50;;;;;;10580083;28;20563;-67
2021/09/10 04:28:58;;;;;;;6.80;5.97;;;19.60;81.60;;;;;;10579395;28;20218;-67
2021/09/10 04:34:20;;;;;;;7.03;6.33;;;19.60;81.80;;;;;;10581727;28;20205;-67
2021/09/10 04:39:43;;;;;;;7.33;5.77;;;19.60;81.90;;;;;;10581319;28;20211;-67
2021/09/10 04:45:07;;;;;;;7.00;5.60;;;19.60;82.00;;;;;;10582236;28;20225;-66
2021/09/10 04:50:30;;;;;;;6.00;5.40;;;19.60;82.10;;;;;;10581261;28;20222;-66
2021/09/10 04:55:53;;;;;;;6.30;5.70;;;19.60;82.10;;;;;;10579055;28;20188;-66
2021/09/10 05:01:15;;;;;;;6.20;5.57;;;19.60;82.10;;;;;;10582817;28;20215;-66
2021/09/10 05:06:38;;;;;;;6.57;5.60;;;19.60;82.20;;;;;;10581294;28;20625;-66
2021/09/10 05:12:01;;;;;;;7.10;5.87;;;19.60;82.30;;;;;;10562186;28;20222;-66
2021/09/10 05:17:23;;;;;;;6.90;6.20;;;19.60;82.50;;;;;;10580675;28;20689;-66
2021/09/10 05:22:45;;;;;;;6.70;6.03;;;19.60;82.50;;;;;;10581135;28;20691;-66
2021/09/10 05:28:09;;;;;;;7.80;7.00;;;19.60;82.60;;;;;;10575420;28;20699;-66
2021/09/10 05:33:31;;;;;;;7.20;6.50;;;19.60;82.80;;;;;;10579665;28;20191;-66
2021/09/10 05:38:53;;;;;;;7.60;6.43;;;19.60;82.90;;;;;;10580551;28;20584;-67
2021/09/10 05:44:18;;;;;;;6.63;5.80;;;19.60;81.40;;;;;;10579570;28;20206;-66
2021/09/10 05:49:40;;;;;;;6.43;5.63;;;19.70;79.60;;;;;;10579689;28;20238;-66
2021/09/10 05:55:02;;;;;;;6.73;6.03;;;19.70;78.40;;;;;;10574508;28;20202;-66
2021/09/10 06:00:26;;;;;;;6.13;5.47;;;19.80;77.60;;;;;;10537169;28;20731;-66
2021/09/10 06:05:48;;;;;;;7.80;6.60;;;19.80;76.90;;;;;;10542887;28;20426;-65
2021/09/10 06:11:10;;;;;;;7.23;6.23;;;20.10;75.00;;;;;;10556857;28;20214;-65
2021/09/10 06:16:34;;;;;;;7.67;6.60;;;20.10;75.40;;;;;;10536016;28;20199;-66
2021/09/10 06:21:57;;;;;;;9.20;6.80;;;20.00;75.60;;;;;;10531879;28;20695;-66
2021/09/10 06:27:19;;;;;;;7.67;6.57;;;20.00;75.60;;;;;;10567070;28;20205;-66
2021/09/10 06:32:42;;;;;;;8.07;6.80;;;19.90;75.30;;;;;;10574919;28;20199;-66
2021/09/10 06:38:05;;;;;;;7.80;6.13;;;20.00;75.30;;;;;;10549124;28;20207;-66
2021/09/10 06:43:27;;;;;;;12.27;6.90;;;20.00;75.10;;;;;;10574992;28;20226;-66
2021/09/10 06:48:50;;;;;;;7.80;6.87;;;20.00;75.00;;;;;;10551474;28;20220;-65
2021/09/10 06:54:12;;;;;;;9.70;8.37;;;20.00;75.00;;;;;;10570958;28;20679;-66
2021/09/10 06:59:34;;;;;;;12.13;9.50;;;20.00;75.40;;;;;;10576225;28;20226;-65
2021/09/10 07:04:58;;;;;;;11.50;9.63;;;20.00;75.80;;;;;;10535274;28;20572;-64
2021/09/10 07:10:21;;;;;;;12.80;10.43;;;20.00;76.30;;;;;;10533907;28;20610;-66
2021/09/10 07:15:43;;;;;;;14.40;10.60;;;20.00;76.60;;;;;;10535577;28;20192;-65
2021/09/10 07:21:07;;;;;;;14.47;11.77;;;20.10;77.00;;;;;;10570441;28;20215;-65
2021/09/10 07:26:31;;;;;;;14.43;11.57;;;20.10;77.20;;;;;;10575328;28;20202;-66
2021/09/10 07:31:53;;;;;;;13.03;11.53;;;20.10;77.40;;;;;;10520673;22;20224;-66
2021/09/10 07:37:16;;;;;;;14.60;12.13;;;20.10;77.50;;;;;;10484093;28;20207;-67
2021/09/10 07:42:40;;;;;;;15.63;12.50;;;20.10;77.70;;;;;;10477381;28;20539;-67
2021/09/10 07:48:02;;;;;;;17.23;13.13;;;20.10;77.80;;;;;;10491761;28;20783;-67
2021/09/10 07:53:25;;;;;;;13.73;11.70;;;20.10;77.90;;;;;;10490633;28;20188;-68
2021/09/10 07:58:47;;;;;;;14.53;11.63;;;20.20;78.00;;;;;;10491305;28;20910;-67
2021/09/10 08:04:09;;;;;;;14.97;10.77;;;20.20;77.90;;;;;;10491771;28;20200;-66
2021/09/10 08:09:33;;;;;;;14.17;11.50;;;20.20;77.90;;;;;;10488982;28;20201;-65
2021/09/10 08:14:55;;;;;;;15.40;12.13;;;20.20;77.90;;;;;;10485556;28;20203;-68
2021/09/10 08:20:17;;;;;;;12.23;10.47;;;20.20;78.00;;;;;;10490788;28;20731;-67
2021/09/10 08:25:41;;;;;;;11.87;10.37;;;20.10;78.00;;;;;;10490659;28;20738;-68
2021/09/10 08:31:03;;;;;;;14.80;11.30;;;20.20;78.10;;;;;;10490251;28;20223;-67
2021/09/10 08:36:25;;;;;;;11.37;9.27;;;20.20;77.90;;;;;;10480283;28;20207;-66
2021/09/10 08:41:49;;;;;;;10.43;9.33;;;20.20;77.70;;;;;;10485157;28;20229;-67
2021/09/10 08:47:13;;;;;;;11.97;9.67;;;20.20;77.50;;;;;;10457049;28;20190;-68
2021/09/10 08:52:35;;;;;;;10.77;8.30;;;20.20;77.30;;;;;;10456212;28;20722;-69
2021/09/10 08:57:59;;;;;;;9.47;8.43;;;20.20;77.00;;;;;;10462471;28;20192;-68
2021/09/10 09:03:21;;;;;;;9.57;7.90;;;20.20;77.30;;;;;;10496562;28;20216;-68
2021/09/10 09:08:45;;;;;;;9.83;8.60;;;20.20;76.40;;;;;;10497269;28;20220;-67
2021/09/10 09:14:09;;;;;;;12.13;9.20;;;20.20;76.50;;;;;;10475708;28;20201;-69
2021/09/10 09:19:31;;;;;;;8.83;7.73;;;20.30;76.80;;;;;;10457293;28;20232;-69
2021/09/10 09:25:07;;;;;;;8.80;7.90;;;20.20;76.40;;;;;;10471473;28;20204;-69
2021/09/10 09:30:42;;;;;;;8.60;7.60;;;20.30;75.60;;;;;;10495119;28;20221;-71
2021/09/10 09:36:06;;;;;;;8.03;7.23;;;20.30;75.30;;;;;;10469032;28;20216;-67
2021/09/10 09:41:28;;;;;;;10.57;7.37;;;20.30;75.10;;;;;;10487388;28;20644;-68
2021/09/10 09:47:00;;;;;;;8.80;6.90;;;20.30;75.00;;;;;;10496842;28;20314;-68
2021/09/10 09:52:22;;;;;;;8.33;7.10;;;20.30;75.00;;;;;;10495333;28;20208;-68
2021/09/10 09:57:45;;;;;;;6.73;5.97;;;20.30;74.80;;;;;;10491624;28;20205;-67
2021/09/10 10:03:09;;;;;;;8.43;6.43;;;20.30;74.50;;;;;;10453931;28;20231;-68
2021/09/10 10:08:38;;;;;;;7.07;6.37;;;20.30;74.30;;;;;;10461134;28;20676;-66
2021/09/10 10:14:03;;;;;;;7.60;6.50;;;20.30;74.20;;;;;;10454395;28;20196;-67
2021/09/10 10:19:45;;;;;;;6.37;5.77;;;20.30;74.00;;;;;;10452890;28;20217;-66
2021/09/10 10:25:08;;;;;;;6.17;5.57;;;20.30;73.80;;;;;;10492702;28;20210;-66
2021/09/10 10:30:49;;;;;;;6.07;5.50;;;20.30;73.80;;;;;;10494843;28;20221;-64
2021/09/10 10:36:31;;;;;;;6.80;4.90;;;20.30;73.50;;;;;;10494356;28;20318;-67
2021/09/10 10:41:56;;;;;;;5.87;5.13;;;20.30;73.20;;;;;;10497360;28;20238;-67
2021/09/10 10:47:31;;;;;;;6.27;5.63;;;20.30;73.40;;;;;;10457103;28;20201;-67
2021/09/10 10:52:57;;;;;;;5.23;4.73;;;20.30;73.40;;;;;;10491020;28;20196;-70
2021/09/10 10:58:21;;;;;;;6.00;4.87;;;20.30;73.10;;;;;;10486927;28;20216;-71
2021/09/10 11:03:51;;;;;;;4.80;4.40;;;20.40;73.10;;;;;;10453557;28;20347;-70
2021/09/10 11:09:15;;;;;;;4.60;4.20;;;20.30;72.90;;;;;;10454185;28;20690;-70
2021/09/10 11:14:38;;;;;;;5.37;4.30;;;20.40;72.60;;;;;;10473566;28;20211;-71
2021/09/10 11:20:00;;;;;;;4.20;3.80;;;20.30;72.30;;;;;;10451890;28;20221;-73
2021/09/10 11:25:24;;;;;;;4.43;4.03;;;20.40;72.20;;;;;;10457160;28;20205;-71
2021/09/10 11:30:48;;;;;;;3.80;3.40;;;20.40;72.00;;;;;;10492073;28;20224;-72
2021/09/10 11:36:22;;;;;;;4.00;3.70;;;20.40;71.90;;;;;;10490129;28;20188;-72
2021/09/10 11:41:46;;;;;;;4.40;3.93;;;20.40;71.60;;;;;;10480792;28;20224;-72
2021/09/10 11:47:08;;;;;;;3.90;3.27;;;20.40;71.40;;;;;;10450894;28;20207;-71
2021/09/10 11:52:31;;;;;;;3.30;3.00;;;20.40;71.40;;;;;;10486516;28;20593;-70
2021/09/10 11:58:11;;;;;;;3.77;3.10;;;20.50;71.40;;;;;;10492302;28;20814;-71
2021/09/10 12:03:33;;;;;;;3.43;3.00;;;20.50;71.20;;;;;;10461228;28;20220;-70
2021/09/10 12:09:23;;;;;;;4.60;3.30;;;20.50;71.20;;;;;;10469984;28;20217;-71
2021/09/10 12:14:54;;;;;;;4.27;3.10;;;20.50;72.40;;;;;;10482882;28;20565;-71
2021/09/10 12:20:18;;;;;;;3.77;3.10;;;20.50;74.40;;;;;;10491606;28;20217;-71
2021/09/10 12:25:47;;;;;;;5.77;3.40;;;20.40;74.80;;;;;;10484857;28;20330;-69
2021/09/10 12:31:11;;;;;;;4.10;2.90;;;20.50;74.30;;;;;;10455757;28;20223;-70
2021/09/10 12:36:33;;;;;;;4.60;3.30;;;20.50;73.10;;;;;;10452871;28;20199;-69
2021/09/10 12:41:56;;;;;;;3.50;2.90;;;20.50;73.10;;;;;;10478530;28;20227;-68
2021/09/10 12:47:19;;;;;;;4.67;3.10;;;20.50;72.90;;;;;;10465193;28;20374;-69
2021/09/10 12:52:41;;;;;;;3.27;2.97;;;20.50;73.10;;;;;;10492417;28;20704;-69
2021/09/10 12:58:05;;;;;;;3.93;3.03;;;20.50;72.00;;;;;;10487402;28;20216;-70
2021/09/10 13:03:28;;;;;;;5.73;4.93;;;20.50;71.90;;;;;;10490352;28;20736;-69
2021/09/10 13:08:51;;;;;;;10.13;6.53;;;20.50;71.90;;;;;;10463925;28;20640;-69
2021/09/10 13:14:13;;;;;;;14.57;9.77;;;20.60;71.80;;;;;;10470842;28;20581;-69
2021/09/10 13:19:37;;;;;;;17.27;11.67;;;20.60;71.70;;;;;;10478003;28;20243;-71
2021/09/10 13:24:59;;;;;;;18.40;12.40;;;20.60;71.60;;;;;;10491866;28;20193;-69
2021/09/10 13:30:22;;;;;;;18.60;12.47;;;20.50;71.70;;;;;;10489196;28;20221;-70
2021/09/10 13:35:46;;;;;;;18.80;12.27;;;20.60;71.90;;;;;;10490672;28;20330;-69
2021/09/10 13:41:08;;;;;;;21.87;12.53;;;20.60;72.00;;;;;;10464340;28;20236;-70
2021/09/10 13:46:31;;;;;;;16.70;11.57;;;20.60;71.70;;;;;;10450511;28;20200;-70
2021/09/10 13:51:55;;;;;;;17.37;11.57;;;20.60;71.80;;;;;;10544998;22;20714;-70
2021/09/10 13:57:17;;;;;;;16.20;11.97;;;20.50;71.90;;;;;;10523391;28;20203;-66
2021/09/10 14:02:39;;;;;;;16.37;11.33;;;20.60;74.50;;;;;;10536262;28;20223;-67
2021/09/10 14:08:02;;;;;;;15.27;11.05;;;20.50;76.90;;;;;;10536033;28;20459;-68
2021/09/10 14:13:25;;;;;;;14.83;10.60;;;20.60;75.90;;;;;;10527000;28;20657;-68
2021/09/10 14:18:47;;;;;;;11.53;9.07;;;20.60;74.10;;;;;;10499755;28;20559;-68
2021/09/10 14:24:10;;;;;;;13.50;9.27;;;20.60;73.40;;;;;;10534047;28;20223;-68
2021/09/10 14:29:32;;;;;;;13.03;8.80;;;20.60;73.00;;;;;;10535019;28;20704;-68
2021/09/10 14:34:54;;;;;;;13.03;9.50;;;20.60;72.70;;;;;;10522298;28;20200;-68
2021/09/10 14:40:18;;;;;;;14.43;9.80;;;20.60;72.50;;;;;;10515161;28;20211;-65
2021/09/10 14:45:40;;;;;;;18.53;9.70;;;20.60;72.60;;;;;;10503422;28;20203;-65
2021/09/10 14:51:02;;;;;;;19.13;9.03;;;20.70;71.90;;;;;;10535110;28;20215;-65
2021/09/10 14:56:26;;;;;;;17.27;8.57;;;20.70;71.60;;;;;;10534733;28;20676;-65
2021/09/10 15:01:48;;;;;;;17.30;9.37;;;20.70;71.20;;;;;;10510453;28;20911;-65
2021/09/10 15:07:11;;;;;;;21.53;9.23;;;20.70;71.30;;;;;;10493241;28;20203;-65
2021/09/10 15:12:34;;;;;;;18.30;8.83;;;20.70;71.50;;;;;;10492974;28;20593;-65
2021/09/10 15:17:56;;;;;;;19.17;9.20;;;20.70;71.50;;;;;;10492611;28;20231;-65
2021/09/10 15:23:18;;;;;;;18.50;9.07;;;20.70;71.50;;;;;;10496628;28;20215;-65
2021/09/10 15:28:42;;;;;;;13.90;8.07;;;20.70;71.20;;;;;;10549182;28;20599;-65
2021/09/10 15:34:04;;;;;;;14.57;8.50;;;20.70;71.30;;;;;;10566691;28;20685;-65
2021/09/10 15:39:27;;;;;;;13.33;7.73;;;20.70;71.00;;;;;;10532935;28;20215;-65
2021/09/10 15:44:50;;;;;;;10.63;7.23;;;20.70;71.10;;;;;;10533779;28;20230;-65
2021/09/10 15:50:12;;;;;;;14.53;7.97;;;20.70;71.00;;;;;;10534579;28;20230;-65
2021/09/10 15:55:35;;;;;;;11.73;7.63;;;20.70;70.90;;;;;;10542088;28;20192;-65
2021/09/10 16:00:59;;;;;;;10.27;7.30;;;20.70;70.70;;;;;;10540199;28;20294;-66
2021/09/10 16:06:21;;;;;;;12.07;7.50;;;20.70;70.70;;;;;;10554496;28;20210;-65
2021/09/10 16:11:43;;;;;;;9.13;7.27;;;20.70;72.00;;;;;;10568746;28;20223;-65
2021/09/10 16:17:06;;;;;;;10.30;7.63;;;20.60;74.80;;;;;;10534194;28;20196;-65
2021/09/10 16:22:28;;;;;;;10.73;7.80;;;20.60;76.00;;;;;;10535799;28;20212;-65
2021/09/10 16:27:50;;;;;;;11.37;7.43;;;20.60;76.50;;;;;;10511932;28;20223;-66
2021/09/10 16:33:14;;;;;;;8.00;7.20;;;20.50;76.80;;;;;;10569843;28;20698;-65
2021/09/10 16:38:37;;;;;;;7.97;7.17;;;20.50;77.10;;;;;;10528718;28;20216;-65
2021/09/10 16:43:59;;;;;;;7.60;6.80;;;20.50;77.40;;;;;;10528124;28;20215;-65
2021/09/10 16:49:23;;;;;;;10.33;7.80;;;20.40;77.50;;;;;;10532832;28;20226;-65
2021/09/10 16:54:45;;;;;;;8.17;6.50;;;20.40;77.70;;;;;;10532580;28;20687;-65
2021/09/10 17:00:08;;;;;;;7.17;6.47;;;20.40;77.90;;;;;;10540834;28;20207;-65
2021/09/10 17:05:32;;;;;;;7.60;6.90;;;20.40;78.10;;;;;;10538598;28;20216;-65
2021/09/10 17:10:54;;;;;;;8.03;7.23;;;20.40;78.60;;;;;;10539195;28;20215;-65
2021/09/10 17:16:16;;;;;;;8.23;7.07;;;20.40;79.20;;;;;;10539496;28;20191;-65
2021/09/10 17:21:40;;;;;;;9.97;7.73;;;20.40;79.20;;;;;;10538884;28;20854;-65
2021/09/10 17:27:02;;;;;;;8.03;6.90;;;20.40;82.10;;;;;;10537668;28;20199;-65
2021/09/10 17:32:24;;;;;;;8.57;7.03;;;20.40;83.00;;;;;;10539278;28;20196;-65
2021/09/10 17:37:48;;;;;;;7.07;6.23;;;20.30;80.90;;;;;;10538735;28;20224;-65
2021/09/10 17:43:11;;;;;;;8.47;6.77;;;20.30;81.20;;;;;;10537572;28;20699;-65
2021/09/10 17:48:33;;;;;;;7.43;6.20;;;20.30;80.90;;;;;;10537453;28;20230;-65
2021/09/10 17:53:56;;;;;;;7.43;6.73;;;20.30;80.40;;;;;;10536672;28;20180;-65
2021/09/10 17:59:18;;;;;;;7.33;5.87;;;20.30;80.10;;;;;;10536512;28;20219;-65
2021/09/10 18:04:40;;;;;;;6.20;5.60;;;20.30;80.00;;;;;;10535543;28;20228;-65
2021/09/10 18:10:05;;;;;;;6.97;6.17;;;20.20;79.90;;;;;;10496253;28;20239;-64
2021/09/10 18:15:27;;;;;;;8.43;6.03;;;20.20;79.80;;;;;;10494906;28;20188;-64
2021/09/10 18:20:49;;;;;;;5.60;4.97;;;20.20;79.80;;;;;;10494036;28;20224;-65
2021/09/10 18:26:13;;;;;;;6.20;5.30;;;20.20;79.70;;;;;;10518978;28;20195;-64
2021/09/10 18:31:35;;;;;;;6.30;5.27;;;20.20;79.80;;;;;;10536046;28;20211;-65
2021/09/10 18:36:58;;;;;;;5.70;4.57;;;20.20;79.60;;;;;;10535415;28;20191;-65
2021/09/10 18:42:21;;;;;;;5.13;4.67;;;20.20;79.80;;;;;;10534741;28;20223;-65
2021/09/10 18:47:43;;;;;;;4.67;4.20;;;20.20;79.90;;;;;;10534401;28;20603;-65
2021/09/10 18:53:05;;;;;;;5.87;3.83;;;20.20;79.90;;;;;;10533669;28;20187;-65
2021/09/10 18:58:29;;;;;;;5.03;4.03;;;20.20;79.90;;;;;;10516887;28;20223;-65
2021/09/10 19:03:51;;;;;;;5.87;4.13;;;20.20;79.90;;;;;;10533632;28;20596;-65
2021/09/10 19:09:13;;;;;;;4.10;3.70;;;20.20;79.90;;;;;;10534419;28;20675;-64
2021/09/10 19:14:36;;;;;;;4.53;3.40;;;20.20;79.90;;;;;;10534670;28;20596;-65
2021/09/10 19:19:59;;;;;;;5.07;3.63;;;20.20;80.00;;;;;;10533554;28;20228;-65
2021/09/10 19:25:21;;;;;;;3.90;3.40;;;20.20;80.00;;;;;;10534679;28;20226;-65
2021/09/10 19:30:44;;;;;;;4.00;3.10;;;20.20;79.90;;;;;;10533725;28;20211;-64
2021/09/10 19:36:06;;;;;;;4.20;2.97;;;20.20;80.00;;;;;;10533666;28;20192;-65
2021/09/10 19:41:28;;;;;;;2.83;2.63;;;20.20;79.90;;;;;;10533038;28;20219;-64
2021/09/10 19:46:52;;;;;;;2.87;2.67;;;20.20;80.00;;;;;;10533195;28;20206;-65
2021/09/10 19:52:14;;;;;;;3.60;2.70;;;20.20;80.30;;;;;;10496818;22;20236;-70
2021/09/10 19:57:36;;;;;;;3.17;2.67;;;20.20;80.30;;;;;;10434589;28;20696;-70
2021/09/10 20:03:00;;;;;;;3.50;2.67;;;20.20;80.30;;;;;;10444561;28;20217;-70
2021/09/10 20:08:22;;;;;;;4.00;2.60;;;20.20;80.30;;;;;;10444331;28;20283;-70
2021/09/10 20:13:44;;;;;;;3.00;2.70;;;20.20;80.20;;;;;;10445134;28;20779;-69
2021/09/10 20:19:08;;;;;;;6.00;2.80;;;20.20;80.20;;;;;;10442352;28;20423;-70
2021/09/10 20:24:31;;;;;;;5.20;2.53;;;20.50;80.00;;;;;;10446036;28;20224;-70
2021/09/10 20:29:53;;;;;;;2.60;2.37;;;20.40;80.70;;;;;;10448243;28;20728;-70
2021/09/10 20:35:16;;;;;;;2.50;2.30;;;20.20;81.20;;;;;;10449974;28;20216;-70
2021/09/10 20:40:39;;;;;;;3.93;2.53;;;20.20;81.20;;;;;;10453606;28;20217;-69
2021/09/10 20:46:02;;;;;;;2.73;2.53;;;20.20;81.50;;;;;;10455697;28;20298;-70
2021/09/10 20:51:26;;;;;;;2.90;2.50;;;20.20;81.50;;;;;;10456314;28;20244;-70
2021/09/10 20:56:48;;;;;;;3.37;2.53;;;20.10;81.70;;;;;;10455284;28;20569;-69
2021/09/10 21:02:10;;;;;;;3.17;2.40;;;20.10;82.60;;;;;;10451971;28;20221;-70
2021/09/10 21:07:33;;;;;;;3.53;2.17;;;20.10;82.10;;;;;;10454911;28;20197;-70
2021/09/10 21:12:55;;;;;;;4.03;2.40;;;20.10;81.80;;;;;;10458022;28;20205;-69
2021/09/10 21:18:17;;;;;;;2.63;2.30;;;20.10;81.40;;;;;;10454665;28;20197;-70
2021/09/10 21:23:41;;;;;;;2.53;2.33;;;20.10;81.50;;;;;;10454391;28;20221;-69
2021/09/10 21:29:03;;;;;;;3.20;2.50;;;20.10;81.50;;;;;;10454428;28;20200;-70
2021/09/10 21:34:25;;;;;;;3.10;2.80;;;20.10;81.60;;;;;;10455083;28;20199;-70
2021/09/10 21:39:49;;;;;;;2.27;2.07;;;20.10;81.80;;;;;;10454554;28;20689;-69
2021/09/10 21:45:12;;;;;;;3.73;2.47;;;20.10;82.00;;;;;;10455591;28;20224;-69
2021/09/10 21:50:34;;;;;;;2.93;2.10;;;20.10;83.00;;;;;;10452296;28;20225;-70
2021/09/10 21:55:58;;;;;;;2.20;2.03;;;20.10;82.40;;;;;;10468366;28;20188;-69
2021/09/10 22:01:20;;;;;;;2.40;2.17;;;20.10;82.60;;;;;;10451952;28;20216;-69
2021/09/10 22:06:42;;;;;;;2.93;2.40;;;20.10;82.60;;;;;;10460681;28;20198;-68
2021/09/10 22:12:06;;;;;;;2.50;2.30;;;20.10;82.70;;;;;;10421640;28;20228;-69
2021/09/10 22:17:31;;;;;;;2.97;2.33;;;20.10;83.00;;;;;;10459719;28;20197;-69
2021/09/10 22:22:54;;;;;;;2.90;2.60;;;20.00;83.30;;;;;;10447026;28;20227;-69
2021/09/10 22:28:17;;;;;;;2.20;2.00;;;20.10;83.50;;;;;;10453242;28;20204;-70
2021/09/10 22:33:39;;;;;;;2.93;2.63;;;20.00;83.80;;;;;;10453932;28;20218;-70
2021/09/10 22:39:02;;;;;;;4.17;2.70;;;20.00;84.00;;;;;;10453738;28;20200;-69
2021/09/10 22:44:25;;;;;;;3.47;2.30;;;20.00;84.10;;;;;;10454129;28;20581;-69
2021/09/10 22:49:47;;;;;;;2.17;1.97;;;20.00;84.20;;;;;;10434246;28;20237;-69
2021/09/10 22:55:10;;;;;;;2.50;2.30;;;20.00;84.40;;;;;;10412374;28;20197;-69
2021/09/10 23:00:34;;;;;;;2.70;2.40;;;20.00;84.40;;;;;;10414263;28;20711;-70
2021/09/10 23:05:56;;;;;;;2.53;2.33;;;20.00;84.50;;;;;;10453910;28;20223;-69
2021/09/10 23:11:19;;;;;;;3.27;2.80;;;20.00;84.50;;;;;;10453773;28;20215;-69
2021/09/10 23:16:42;;;;;;;2.43;2.23;;;20.00;84.50;;;;;;10453043;28;20204;-69
2021/09/10 23:22:05;;;;;;;4.67;2.57;;;20.00;84.60;;;;;;10452610;28;20220;-69
2021/09/10 23:27:27;;;;;;;2.80;2.50;;;20.00;85.20;;;;;;10451992;28;20204;-70
2021/09/10 23:32:50;;;;;;;2.40;2.20;;;20.00;84.60;;;;;;10450822;28;20213;-69
2021/09/10 23:38:12;;;;;;;2.43;2.23;;;20.00;84.50;;;;;;10449696;28;20201;-70
2021/09/10 23:43:34;;;;;;;3.20;2.90;;;20.00;84.30;;;;;;10452910;28;20600;-69
2021/09/10 23:48:58;;;;;;;3.10;2.33;;;20.00;84.00;;;;;;10452715;28;20203;-69
2021/09/10 23:54:21;;;;;;;3.47;2.37;;;20.00;83.90;;;;;;10452395;28;20196;-70
2021/09/10 23:59:43;;;;;;;3.13;2.27;;;20.10;83.90;;;;;;10451808;28;20235;-69
